createdAt,value
2022-10-15T00:00:56.048Z,96.28
2022-10-15T00:03:23.705Z,98.07
2022-10-15T00:05:51.365Z,97.75
2022-10-15T00:08:19.068Z,97.38
2022-10-15T00:10:46.752Z,97.10
2022-10-15T00:13:15.813Z,97.71
2022-10-15T00:15:43.533Z,97.26
2022-10-15T00:18:11.374Z,98.10
2022-10-15T00:20:42.357Z,97.91
2022-10-15T00:23:10.029Z,95.82
2022-10-15T00:25:38.008Z,96.42
2022-10-15T00:28:05.956Z,96.63
2022-10-15T00:30:35.020Z,96.05
2022-10-15T00:33:02.720Z,95.77
2022-10-15T00:35:30.432Z,96.15
2022-10-15T00:37:58.120Z,97.40
2022-10-15T00:40:25.788Z,97.05
2022-10-15T00:42:53.469Z,96.49
2022-10-15T00:45:21.263Z,96.93
2022-10-15T00:47:50.649Z,97.32
2022-10-15T00:50:19.919Z,97.52
2022-10-15T00:52:57.522Z,96.94
2022-10-15T00:55:28.740Z,96.56
2022-10-15T00:57:57.411Z,96.59
2022-10-15T01:00:25.076Z,97.82
2022-10-15T01:02:54.093Z,98.03
2022-10-15T01:05:22.335Z,97.39
2022-10-15T01:07:50.006Z,96.60
2022-10-15T01:10:18.092Z,96.81
2022-10-15T01:12:54.349Z,97.50
2022-10-15T01:15:27.264Z,97.57
2022-10-15T01:17:58.625Z,97.45
2022-10-15T01:21:02.967Z,98.57
2022-10-15T01:23:55.960Z,98.64
2022-10-15T01:26:50.579Z,98.38
2022-10-15T01:29:30.355Z,98.20
2022-10-15T01:32:03.981Z,97.57
2022-10-15T01:34:37.614Z,97.50
2022-10-15T01:37:09.644Z,98.52
2022-10-15T01:39:41.755Z,98.49
2022-10-15T01:42:15.372Z,97.94
2022-10-15T01:44:44.436Z,98.24
2022-10-15T01:47:19.280Z,98.65
2022-10-15T01:49:47.756Z,98.11
2022-10-15T01:52:18.102Z,98.32
2022-10-15T01:54:47.225Z,98.00
2022-10-15T01:57:15.900Z,98.33
2022-10-15T01:59:43.942Z,98.65
2022-10-15T02:02:11.734Z,98.03
2022-10-15T02:04:41.160Z,96.74
2022-10-15T02:07:12.349Z,97.52
2022-10-15T02:09:44.616Z,96.77
2022-10-15T02:12:21.339Z,96.88
2022-10-15T02:14:54.607Z,97.08
2022-10-15T02:17:25.576Z,97.08
2022-10-15T02:22:31.757Z,95.21
2022-10-15T02:25:03.187Z,95.25
2022-10-15T02:27:32.400Z,96.34
2022-10-15T02:30:03.140Z,96.85
2022-10-15T02:32:31.881Z,97.17
2022-10-15T02:35:03.077Z,96.04
2022-10-15T02:37:31.554Z,95.78
2022-10-15T02:39:59.653Z,96.19
2022-10-15T02:42:27.725Z,95.27
2022-10-15T02:44:55.418Z,95.38
2022-10-15T02:47:23.138Z,94.71
2022-10-15T02:49:50.829Z,94.79
2022-10-15T02:52:19.853Z,94.06
2022-10-15T02:54:47.550Z,94.08
2022-10-15T02:57:15.244Z,93.96
2022-10-15T02:59:43.032Z,93.09
2022-10-15T03:02:14.068Z,92.50
2022-10-15T03:04:44.561Z,92.41
2022-10-15T03:07:12.315Z,92.20
2022-10-15T03:09:41.348Z,92.36
2022-10-15T03:12:09.235Z,91.74
2022-10-15T03:14:36.942Z,91.53
2022-10-15T03:17:04.652Z,91.24
2022-10-15T03:19:32.326Z,91.26
2022-10-15T03:22:00.045Z,90.91
2022-10-15T03:24:27.953Z,90.98
2022-10-15T03:26:56.959Z,91.08
2022-10-15T03:29:24.604Z,90.82
2022-10-15T03:31:52.557Z,90.86
2022-10-15T03:34:20.269Z,90.69
2022-10-15T03:36:47.956Z,90.51
2022-10-15T03:39:15.812Z,90.68
2022-10-15T03:44:13.571Z,90.67
2022-10-15T03:46:41.272Z,90.27
2022-10-15T03:49:08.970Z,90.59
2022-10-15T03:51:36.920Z,90.53
2022-10-15T03:54:04.994Z,90.78
2022-10-15T03:56:32.689Z,90.94
2022-10-15T03:59:00.481Z,90.77
2022-10-15T04:01:33.047Z,90.36
2022-10-15T04:04:00.808Z,90.53
2022-10-15T04:06:29.577Z,90.56
2022-10-15T04:08:57.261Z,90.72
2022-10-15T04:11:24.923Z,90.08
2022-10-15T04:13:52.837Z,90.26
2022-10-15T04:16:22.241Z,89.85
2022-10-15T04:18:51.282Z,89.91
2022-10-15T04:21:19.012Z,90.16
2022-10-15T04:23:46.699Z,90.23
2022-10-15T04:26:14.410Z,89.91
2022-10-15T04:28:42.167Z,90.27
2022-10-15T04:31:10.121Z,89.97
2022-10-15T04:33:37.796Z,90.03
2022-10-15T04:36:08.939Z,89.93
2022-10-15T04:38:36.641Z,89.81
2022-10-15T04:41:06.571Z,89.96
2022-10-15T04:43:34.859Z,89.68
2022-10-15T04:46:07.473Z,89.87
2022-10-15T04:48:38.969Z,89.83
2022-10-15T04:51:13.883Z,89.57
2022-10-15T04:53:41.552Z,89.81
2022-10-15T04:56:11.987Z,89.37
2022-10-15T04:58:39.653Z,89.31
2022-10-15T05:01:09.388Z,89.63
2022-10-15T05:03:39.714Z,90.02
2022-10-15T05:06:13.284Z,90.00
2022-10-15T05:08:43.295Z,89.77
2022-10-15T05:11:12.764Z,89.87
2022-10-15T05:13:40.435Z,89.73
2022-10-15T05:16:13.520Z,89.77
2022-10-15T05:18:41.621Z,89.71
2022-10-15T05:21:11.209Z,89.23
2022-10-15T05:23:39.422Z,88.96
2022-10-15T05:26:11.737Z,88.77
2022-10-15T05:28:39.986Z,88.77
2022-10-15T05:31:08.740Z,88.58
2022-10-15T05:33:36.503Z,88.66
2022-10-15T05:36:12.865Z,88.46
2022-10-15T05:38:41.487Z,88.93
2022-10-15T05:41:09.166Z,89.12
2022-10-15T05:43:40.356Z,88.87
2022-10-15T05:46:09.472Z,88.90
2022-10-15T05:48:37.136Z,89.30
2022-10-15T05:51:06.288Z,89.07
2022-10-15T05:53:36.425Z,88.84
2022-10-15T05:56:05.091Z,88.84
2022-10-15T05:58:37.173Z,89.02
2022-10-15T06:01:07.213Z,89.13
2022-10-15T06:03:35.177Z,88.78
2022-10-15T06:06:05.859Z,88.86
2022-10-15T06:08:34.940Z,88.87
2022-10-15T06:11:09.330Z,88.96
2022-10-15T06:13:38.940Z,89.48
2022-10-15T06:16:07.184Z,89.34
2022-10-15T06:18:34.888Z,89.01
2022-10-15T06:21:06.394Z,88.87
2022-10-15T06:23:35.542Z,89.05
2022-10-15T06:26:04.560Z,89.11
2022-10-15T06:28:32.630Z,89.06
2022-10-15T06:31:00.728Z,89.02
2022-10-15T06:33:30.256Z,88.92
2022-10-15T06:36:01.828Z,89.29
2022-10-15T06:38:30.005Z,90.19
2022-10-15T06:40:59.049Z,90.25
2022-10-15T06:43:28.816Z,89.89
2022-10-15T06:46:00.735Z,89.92
2022-10-15T06:48:28.590Z,89.96
2022-10-15T06:50:58.140Z,89.71
2022-10-15T06:53:25.839Z,89.92
2022-10-15T06:55:58.992Z,89.68
2022-10-15T06:58:26.865Z,89.85
2022-10-15T07:00:54.765Z,89.43
2022-10-15T07:03:22.464Z,90.38
2022-10-15T07:05:50.142Z,90.84
2022-10-15T07:08:19.333Z,90.80
2022-10-15T07:10:47.556Z,90.09
2022-10-15T07:13:16.595Z,89.83
2022-10-15T07:15:46.172Z,89.95
2022-10-15T07:18:13.887Z,89.93
2022-10-15T07:20:41.749Z,90.17
2022-10-15T07:23:09.748Z,90.21
2022-10-15T07:25:38.714Z,90.31
2022-10-15T07:28:06.682Z,89.93
2022-10-15T07:30:35.769Z,90.39
2022-10-15T07:33:06.283Z,91.79
2022-10-15T07:35:34.020Z,91.29
2022-10-15T07:38:04.347Z,91.55
2022-10-15T07:40:32.089Z,91.62
2022-10-15T07:43:00.290Z,91.77
2022-10-15T07:45:30.043Z,92.03
2022-10-15T07:47:59.014Z,91.92
2022-10-15T07:50:29.239Z,92.77
2022-10-15T07:53:00.063Z,91.95
2022-10-15T07:55:29.732Z,91.96
2022-10-15T07:57:57.964Z,91.72
2022-10-15T08:00:25.788Z,92.31
2022-10-15T08:02:53.488Z,91.95
2022-10-15T08:05:22.561Z,92.92
2022-10-15T08:07:50.445Z,92.08
2022-10-15T08:10:18.693Z,92.22
2022-10-15T08:12:47.522Z,92.90
2022-10-15T08:15:15.367Z,93.04
2022-10-15T08:17:43.057Z,93.41
2022-10-15T08:20:11.565Z,92.67
2022-10-15T08:22:40.630Z,94.48
2022-10-15T08:25:09.177Z,92.86
2022-10-15T08:27:37.594Z,94.40
2022-10-15T08:30:05.974Z,95.15
2022-10-15T08:32:33.696Z,95.09
2022-10-15T08:35:01.409Z,93.45
2022-10-15T08:37:29.841Z,94.83
2022-10-15T08:39:58.880Z,93.74
2022-10-15T08:42:31.648Z,94.37
2022-10-15T08:45:01.041Z,94.48
2022-10-15T08:47:32.342Z,94.87
2022-10-15T08:50:01.298Z,94.87
2022-10-15T08:52:39.570Z,94.90
2022-10-15T08:55:11.243Z,94.09
2022-10-15T08:57:44.929Z,94.63
2022-10-15T09:00:15.678Z,94.04
2022-10-15T09:02:47.874Z,93.08
2022-10-15T09:05:26.274Z,93.93
2022-10-15T09:07:56.721Z,93.81
2022-10-15T09:10:35.298Z,93.43
2022-10-15T09:13:06.717Z,92.46
2022-10-15T09:15:37.976Z,91.34
2022-10-15T09:18:05.997Z,92.40
2022-10-15T09:20:35.910Z,91.57
2022-10-15T09:23:04.994Z,91.03
2022-10-15T09:25:36.705Z,91.58
2022-10-15T09:28:10.660Z,91.29
2022-10-15T09:30:41.978Z,90.67
2022-10-15T09:33:14.581Z,91.43
2022-10-15T09:35:44.995Z,91.40
2022-10-15T09:38:26.665Z,90.93
2022-10-15T09:41:06.663Z,90.09
2022-10-15T09:43:40.730Z,90.08
2022-10-15T09:46:12.157Z,90.24
2022-10-15T09:48:44.101Z,90.86
2022-10-15T09:51:19.701Z,90.86
2022-10-15T09:53:51.241Z,89.15
2022-10-15T09:56:21.529Z,89.82
2022-10-15T09:58:52.446Z,89.69
2022-10-15T10:01:21.292Z,90.43
2022-10-15T10:03:53.932Z,89.55
2022-10-15T10:06:22.635Z,89.75
2022-10-15T10:08:53.354Z,88.63
2022-10-15T10:11:23.885Z,89.18
2022-10-15T10:13:53.450Z,88.60
2022-10-15T10:16:22.018Z,90.13
2022-10-15T10:19:05.153Z,88.56
2022-10-15T10:21:34.593Z,87.98
2022-10-15T10:24:21.249Z,87.94
2022-10-15T10:26:50.485Z,87.32
2022-10-15T10:29:33.077Z,88.12
2022-10-15T10:32:10.968Z,86.25
2022-10-15T10:34:38.704Z,86.81
2022-10-15T10:37:07.547Z,87.05
2022-10-15T10:39:36.365Z,86.17
2022-10-15T10:42:07.814Z,86.36
2022-10-15T10:44:37.408Z,86.45
2022-10-15T10:47:12.251Z,86.88
2022-10-15T10:49:41.726Z,85.56
2022-10-15T10:52:24.262Z,85.78
2022-10-15T10:54:57.985Z,85.08
2022-10-15T10:57:34.329Z,85.47
2022-10-15T11:00:04.204Z,85.01
2022-10-15T11:02:33.293Z,84.75
2022-10-15T11:05:03.046Z,84.26
2022-10-15T11:07:34.798Z,83.73
2022-10-15T11:10:10.763Z,84.34
2022-10-15T11:12:54.145Z,83.40
2022-10-15T11:15:32.132Z,84.33
2022-10-15T11:18:15.958Z,83.50
2022-10-15T11:20:58.659Z,84.33
2022-10-15T11:23:38.865Z,84.49
2022-10-15T11:26:16.881Z,83.28
2022-10-15T11:28:52.515Z,82.44
2022-10-15T11:31:27.328Z,83.24
2022-10-15T11:34:06.420Z,82.67
2022-10-15T11:36:44.468Z,83.52
2022-10-15T11:39:23.750Z,81.92
2022-10-15T11:41:57.146Z,81.32
2022-10-15T11:44:35.169Z,81.56
2022-10-15T11:47:11.737Z,79.44
2022-10-15T11:49:45.046Z,78.64
2022-10-15T11:52:31.577Z,78.19
2022-10-15T11:55:03.826Z,77.95
2022-10-15T11:57:33.984Z,78.08
2022-10-15T12:00:07.885Z,78.01
2022-10-15T12:02:37.737Z,77.20
2022-10-15T12:05:07.643Z,77.48
2022-10-15T12:07:39.432Z,77.82
2022-10-15T12:10:18.505Z,77.82
2022-10-15T12:12:54.183Z,78.31
2022-10-15T12:15:29.090Z,78.58
2022-10-15T12:18:03.498Z,78.57
2022-10-15T12:20:31.702Z,78.12
2022-10-15T12:23:00.917Z,78.32
2022-10-15T12:25:45.665Z,78.42
2022-10-15T12:28:19.216Z,78.70
2022-10-15T12:31:04.405Z,78.85
2022-10-15T12:33:37.867Z,78.60
2022-10-15T12:36:09.753Z,79.37
2022-10-15T12:38:39.397Z,80.06
2022-10-15T12:41:09.731Z,80.19
2022-10-15T12:43:40.760Z,80.53
2022-10-15T12:46:11.348Z,80.63
2022-10-15T12:48:41.501Z,80.58
2022-10-15T12:51:39.787Z,80.48
2022-10-15T12:54:38.716Z,80.25
2022-10-15T12:57:43.719Z,80.38
2022-10-15T13:00:33.785Z,80.64
2022-10-15T13:03:15.188Z,80.02
2022-10-15T13:05:43.208Z,80.49
2022-10-15T13:08:15.945Z,80.26
2022-10-15T13:10:49.748Z,79.78
2022-10-15T13:13:19.300Z,79.90
2022-10-15T13:15:54.619Z,80.27
2022-10-15T13:18:26.414Z,80.31
2022-10-15T13:20:56.282Z,80.41
2022-10-15T13:23:31.691Z,80.19
2022-10-15T13:26:14.311Z,81.03
2022-10-15T13:28:43.423Z,80.61
2022-10-15T13:31:16.534Z,81.13
2022-10-15T13:33:47.430Z,80.95
2022-10-15T13:36:21.541Z,81.03
2022-10-15T13:38:54.816Z,81.10
2022-10-15T13:41:32.057Z,80.83
2022-10-15T13:44:01.004Z,80.77
2022-10-15T13:46:31.764Z,80.99
2022-10-15T13:49:03.262Z,81.46
2022-10-15T13:51:35.733Z,81.62
2022-10-15T13:54:31.795Z,81.00
2022-10-15T13:57:07.130Z,81.58
2022-10-15T13:59:34.923Z,81.71
2022-10-15T14:02:04.263Z,82.14
2022-10-15T14:04:33.660Z,81.96
2022-10-15T14:07:03.640Z,81.58
2022-10-15T14:09:33.856Z,81.95
2022-10-15T14:12:03.597Z,82.27
2022-10-15T14:14:34.608Z,82.52
2022-10-15T14:17:04.849Z,82.27
2022-10-15T14:19:34.947Z,82.89
2022-10-15T14:22:02.734Z,83.50
2022-10-15T14:24:33.257Z,82.85
2022-10-15T14:27:09.529Z,83.01
2022-10-15T14:29:40.228Z,83.95
2022-10-15T14:32:26.657Z,83.50
2022-10-15T14:34:56.841Z,83.38
2022-10-15T14:37:41.865Z,83.09
2022-10-15T14:40:18.658Z,83.29
2022-10-15T14:42:48.689Z,83.54
2022-10-15T14:45:22.508Z,83.68
2022-10-15T14:47:51.611Z,83.84
2022-10-15T14:50:21.417Z,83.93
2022-10-15T14:52:51.637Z,83.30
2022-10-15T14:55:28.956Z,82.98
2022-10-15T14:57:57.040Z,83.23
2022-10-15T15:00:28.400Z,83.39
2022-10-15T15:02:57.824Z,83.17
2022-10-15T15:05:28.846Z,83.08
2022-10-15T15:08:03.078Z,83.50
2022-10-15T15:10:34.633Z,84.57
2022-10-15T15:13:04.384Z,84.17
2022-10-15T15:15:32.465Z,84.40
2022-10-15T15:18:00.332Z,84.66
2022-10-15T15:20:29.451Z,84.50
2022-10-15T15:22:57.235Z,83.86
2022-10-15T15:25:29.565Z,84.19
2022-10-15T15:27:57.796Z,84.28
2022-10-15T15:30:27.443Z,84.03
2022-10-15T15:32:55.331Z,84.12
2022-10-15T15:35:25.855Z,84.01
2022-10-15T15:37:54.943Z,84.99
2022-10-15T15:40:22.997Z,85.31
2022-10-15T15:42:50.841Z,86.63
2022-10-15T15:45:20.841Z,86.59
2022-10-15T15:47:48.637Z,86.89
2022-10-15T15:50:16.827Z,87.10
2022-10-15T15:52:44.558Z,87.30
2022-10-15T15:55:14.344Z,87.12
2022-10-15T15:57:42.134Z,87.15
2022-10-15T16:00:11.428Z,86.88
2022-10-15T16:02:39.605Z,86.58
2022-10-15T16:05:09.194Z,87.44
2022-10-15T16:07:36.850Z,86.66
2022-10-15T16:10:06.245Z,87.51
2022-10-15T16:12:35.392Z,86.90
2022-10-15T16:15:03.057Z,87.02
2022-10-15T16:17:30.752Z,86.75
2022-10-15T16:19:58.427Z,86.99
2022-10-15T16:22:26.088Z,86.89
2022-10-15T16:24:55.044Z,86.91
2022-10-15T16:27:23.470Z,87.12
2022-10-15T16:29:52.919Z,86.99
2022-10-15T16:32:20.590Z,86.87
2022-10-15T16:34:48.267Z,87.12
2022-10-15T16:37:15.941Z,86.91
2022-10-15T16:39:43.755Z,86.58
2022-10-15T16:42:13.547Z,86.85
2022-10-15T16:44:41.272Z,86.87
2022-10-15T16:47:10.285Z,87.68
2022-10-15T16:49:37.940Z,88.21
2022-10-15T16:52:05.947Z,87.96
2022-10-15T16:54:33.621Z,88.25
2022-10-15T16:57:03.036Z,88.01
2022-10-15T16:59:30.708Z,88.25
2022-10-15T17:01:58.616Z,88.42
2022-10-15T17:04:27.773Z,88.30
2022-10-15T17:06:55.420Z,88.54
2022-10-15T17:09:23.593Z,88.74
2022-10-15T17:11:51.434Z,88.80
2022-10-15T17:14:19.432Z,90.04
2022-10-15T17:16:49.088Z,89.96
2022-10-15T17:19:18.428Z,92.83
2022-10-15T17:21:47.445Z,93.16
2022-10-15T17:24:16.365Z,92.76
2022-10-15T17:26:45.284Z,94.53
2022-10-15T17:29:16.176Z,94.80
2022-10-15T17:31:44.035Z,95.65
2022-10-15T17:34:12.656Z,95.74
2022-10-15T17:36:44.914Z,95.26
2022-10-15T17:39:15.699Z,95.33
2022-10-15T17:41:43.472Z,95.54
2022-10-15T17:44:11.669Z,96.52
2022-10-15T17:46:40.136Z,96.42
2022-10-15T17:49:09.465Z,97.01
2022-10-15T17:51:37.532Z,96.90
2022-10-15T17:54:05.233Z,96.50
2022-10-15T17:56:35.520Z,97.15
2022-10-15T17:59:05.821Z,97.90
2022-10-15T18:04:23.500Z,97.48
2022-10-15T18:06:51.162Z,97.40
2022-10-15T18:09:18.845Z,97.52
2022-10-15T18:11:48.937Z,97.09
2022-10-15T18:14:16.654Z,97.67
2022-10-15T18:16:44.389Z,96.45
2022-10-15T18:19:12.139Z,96.66
2022-10-15T18:21:40.031Z,94.57
2022-10-15T18:24:07.732Z,94.53
2022-10-15T18:26:35.415Z,94.61
2022-10-15T18:29:04.507Z,94.69
2022-10-15T18:31:32.225Z,94.99
2022-10-15T18:33:59.897Z,94.64
2022-10-15T18:36:31.298Z,94.93
2022-10-15T18:38:59.687Z,95.35
2022-10-15T18:41:28.789Z,96.46
2022-10-15T18:43:57.744Z,96.04
2022-10-15T18:46:27.680Z,96.56
2022-10-15T18:48:55.904Z,97.22
2022-10-15T18:51:25.155Z,96.79
2022-10-15T18:53:53.190Z,96.94
2022-10-15T18:56:21.292Z,96.30
2022-10-15T18:58:49.894Z,94.59
2022-10-15T19:01:27.397Z,93.87
2022-10-15T19:03:55.237Z,94.38
2022-10-15T19:06:24.223Z,95.20
2022-10-15T19:08:52.334Z,96.01
2022-10-15T19:11:20.437Z,96.34
2022-10-15T19:13:48.856Z,96.59
2022-10-15T19:16:16.547Z,96.97
2022-10-15T19:18:45.594Z,98.02
2022-10-15T19:21:13.273Z,96.29
2022-10-15T19:23:41.040Z,96.23
2022-10-15T19:26:09.694Z,96.21
2022-10-15T19:28:38.078Z,96.37
2022-10-15T19:31:08.778Z,97.66
2022-10-15T19:33:36.715Z,97.09
2022-10-15T19:36:06.537Z,96.60
2022-10-15T19:38:34.697Z,96.18
2022-10-15T19:41:05.073Z,96.87
2022-10-15T19:43:32.732Z,96.74
2022-10-15T19:46:05.110Z,96.92
2022-10-15T19:48:32.900Z,98.12
2022-10-15T19:51:05.008Z,97.78
2022-10-15T19:53:34.197Z,98.09
2022-10-15T19:56:05.048Z,97.61
2022-10-15T19:58:33.800Z,97.08
2022-10-15T20:03:54.144Z,97.44
2022-10-15T20:06:22.192Z,97.09
2022-10-15T20:08:51.428Z,97.59
2022-10-15T20:11:19.695Z,97.65
2022-10-15T20:13:47.388Z,97.53
2022-10-15T20:16:16.656Z,96.19
2022-10-15T20:18:49.291Z,97.44
2022-10-15T20:21:17.573Z,98.07
2022-10-15T20:23:46.687Z,98.07
2022-10-15T20:26:16.898Z,97.78
2022-10-15T20:28:46.071Z,97.91
2022-10-15T20:31:16.651Z,97.77
2022-10-15T20:33:45.155Z,96.22
2022-10-15T20:36:15.866Z,96.47
2022-10-15T20:38:45.602Z,96.65
2022-10-15T20:41:16.124Z,98.08
2022-10-15T20:43:45.017Z,98.32
2022-10-15T20:46:14.491Z,98.12
2022-10-15T20:48:42.482Z,98.23
2022-10-15T20:51:10.577Z,97.86
2022-10-15T20:53:38.776Z,98.34
2022-10-15T20:56:07.512Z,98.21
2022-10-15T20:58:36.538Z,97.95
2022-10-15T21:01:07.557Z,98.25
2022-10-15T21:03:35.260Z,97.70
2022-10-15T21:06:05.172Z,97.69
2022-10-15T21:08:32.981Z,98.22
2022-10-15T21:11:04.082Z,97.65
2022-10-15T21:13:31.940Z,98.33
2022-10-15T21:16:03.427Z,97.57
2022-10-15T21:18:32.250Z,97.80
2022-10-15T21:21:03.509Z,98.45
2022-10-15T21:23:31.434Z,98.28
2022-10-15T21:26:04.954Z,97.43
2022-10-15T21:28:33.053Z,98.29
2022-10-15T21:31:05.097Z,97.77
2022-10-15T21:33:33.210Z,97.85
2022-10-15T21:36:10.556Z,98.27
2022-10-15T21:38:38.263Z,98.11
2022-10-15T21:41:06.180Z,98.31
2022-10-15T21:43:37.199Z,98.84
2022-10-15T21:46:07.581Z,98.54
2022-10-15T21:48:36.465Z,98.33
2022-10-15T21:51:05.825Z,98.62
2022-10-15T21:53:34.162Z,98.17
2022-10-15T21:56:06.217Z,97.79
2022-10-15T21:58:33.897Z,97.84
2022-10-15T22:01:11.770Z,96.80
2022-10-15T22:03:41.485Z,96.90
2022-10-15T22:06:12.318Z,96.47
2022-10-15T22:08:40.314Z,95.70
2022-10-15T22:11:10.026Z,95.35
2022-10-15T22:13:38.948Z,95.57
2022-10-15T22:16:09.907Z,94.18
2022-10-15T22:18:37.833Z,94.39
2022-10-15T22:21:15.325Z,95.32
2022-10-15T22:23:44.356Z,94.49
2022-10-15T22:26:12.049Z,94.87
2022-10-15T22:28:40.104Z,94.27
2022-10-15T22:31:11.557Z,93.87
2022-10-15T22:33:40.521Z,94.56
2022-10-15T22:36:14.345Z,94.24
2022-10-15T22:38:42.118Z,94.60
2022-10-15T22:41:10.609Z,94.09
2022-10-15T22:43:38.475Z,94.06
2022-10-15T22:46:07.089Z,93.14
2022-10-15T22:48:36.606Z,92.89
2022-10-15T22:51:06.553Z,92.66
2022-10-15T22:53:34.645Z,92.22
2022-10-15T22:56:03.380Z,92.70
2022-10-15T22:58:32.381Z,91.74
2022-10-15T23:01:07.814Z,91.45
2022-10-15T23:03:37.090Z,91.16
2022-10-15T23:06:05.053Z,91.47
2022-10-15T23:08:33.283Z,90.96
2022-10-15T23:11:09.288Z,91.06
2022-10-15T23:13:38.285Z,90.52
2022-10-15T23:16:07.622Z,90.60
2022-10-15T23:18:36.661Z,91.47
2022-10-15T23:21:06.492Z,91.03
2022-10-15T23:23:34.209Z,90.56
2022-10-15T23:26:01.907Z,90.65
2022-10-15T23:28:29.743Z,90.58
2022-10-15T23:30:57.508Z,90.35
2022-10-15T23:33:25.392Z,89.94
2022-10-15T23:36:03.588Z,89.85
2022-10-15T23:38:31.744Z,89.84
2022-10-15T23:41:02.629Z,89.59
2022-10-15T23:43:30.900Z,89.31
2022-10-15T23:45:59.264Z,89.45
2022-10-15T23:48:27.217Z,88.92
2022-10-15T23:50:59.401Z,89.07
2022-10-15T23:53:32.372Z,89.44
2022-10-15T23:56:03.026Z,89.39
2022-10-15T23:58:31.938Z,88.35
